Time;durP1;ratioP1;P1;durP2;ratioP2;P2;SDS_P1;SDS_P2;PMS_P1;PMS_P2;Temp;Humidity;BMP_temperature;BMP_pressure;BME280_temperature;BME280_humidity;BME280_pressure;Samples;Min_cycle;Max_cycle;Signal;HPM_P1;HPM_P2
2022/02/01 00:02:28;;;;;;;18.92;8.55;;;;;;;1.92;84.95;98599.66;4901766;29;20095;-63
2022/02/01 00:05:06;;;;;;;18.40;8.27;;;;;;;1.88;84.44;98595.38;4918554;29;20122;-63
2022/02/01 00:07:44;;;;;;;22.63;9.50;;;;;;;1.84;84.56;98596.16;4918270;29;20418;-64
2022/02/01 00:10:19;;;;;;;22.15;9.85;;;;;;;1.87;85.00;98598.75;4918555;29;20138;-63
2022/02/01 00:13:00;;;;;;;23.15;9.80;;;;;;;1.94;85.14;98598.00;4918158;29;20052;-63
2022/02/01 00:18:58;;;;;;;20.13;8.82;;;;;;;1.93;84.69;98602.19;4918030;29;20048;-65
2022/02/01 00:35:04;;;;;;;24.05;9.85;;;;;;;1.92;84.69;98609.72;4917758;29;20052;-63
2022/02/01 00:37:37;;;;;;;21.70;9.05;;;;;;;1.91;85.03;98615.56;4917954;29;20048;-64
2022/02/01 00:40:12;;;;;;;20.80;8.57;;;;;;;1.84;84.27;98631.38;4918152;29;20104;-63
2022/02/01 00:42:42;;;;;;;22.90;9.52;;;;;;;1.80;84.25;98629.66;4916876;29;20161;-63
2022/02/01 00:45:10;;;;;;;30.23;10.98;;;;;;;1.82;84.44;98617.94;4917861;29;20052;-64
2022/02/01 00:47:42;;;;;;;20.10;8.30;;;;;;;1.84;85.22;98628.88;4916460;29;20104;-63
2022/02/01 00:50:14;;;;;;;22.65;10.05;;;;;;;1.77;84.81;98619.53;4917653;29;20063;-63
2022/02/01 00:52:43;;;;;;;18.70;8.85;;;;;;;1.83;84.94;98620.47;4917713;29;20060;-63
2022/02/01 00:55:12;;;;;;;20.38;9.02;;;;;;;1.79;85.29;98621.25;4917739;29;20062;-63
2022/02/01 00:57:42;;;;;;;;;;;;;;;1.83;84.75;98629.69;4917917;29;20048;-62
2022/02/01 01:00:12;;;;;;;20.23;8.23;;;;;;;1.81;84.81;98628.81;4917378;29;20369;-63
2022/02/01 01:02:43;;;;;;;19.92;8.63;;;;;;;1.85;84.71;98633.06;4917701;29;20127;-63
2022/02/01 01:05:13;;;;;;;18.92;8.10;;;;;;;1.91;84.38;98623.97;4917930;29;20055;-63
2022/02/01 01:07:42;;;;;;;18.15;8.40;;;;;;;1.94;85.47;98615.63;4917386;29;20048;-63
2022/02/01 01:10:12;;;;;;;18.58;8.18;;;;;;;1.92;84.65;98617.28;4917439;29;20075;-63
2022/02/01 01:12:51;;;;;;;19.83;8.70;;;;;;;1.94;84.36;98613.09;4916851;29;20047;-63
2022/02/01 01:15:24;;;;;;;15.93;7.20;;;;;;;1.93;84.49;98613.91;4917309;29;20051;-63
2022/02/01 01:44:29;;;;;;;24.55;8.60;;;;;;;1.97;85.62;98614.00;4917415;29;20082;-62
2022/02/01 01:54:57;;;;;;;22.13;9.05;;;;;;;1.71;85.45;98622.78;4917514;29;20080;-63
2022/02/01 01:57:26;;;;;;;19.60;9.02;;;;;;;1.66;84.39;98631.06;4916909;29;20044;-62
2022/02/01 01:59:55;;;;;;;23.08;9.25;;;;;;;1.62;85.34;98629.31;4916856;29;20055;-62
2022/02/01 02:02:24;;;;;;;22.20;9.43;;;;;;;1.63;84.86;98631.03;4917188;29;20040;-63
2022/02/01 02:04:54;;;;;;;24.05;10.13;;;;;;;1.67;85.46;98635.28;4917135;29;20052;-63
2022/02/01 02:07:23;;;;;;;21.17;10.27;;;;;;;1.69;84.90;98631.13;4916790;29;20052;-63
2022/02/01 02:09:53;;;;;;;21.20;9.27;;;;;;;1.67;84.53;98642.81;4916814;29;20058;-64
2022/02/01 02:12:38;;;;;;;24.23;9.87;;;;;;;1.73;85.16;98647.94;4917293;29;20482;-62
2022/02/01 02:15:08;;;;;;;23.50;9.40;;;;;;;1.76;84.65;98658.91;4916816;29;20293;-63
2022/02/01 02:17:36;;;;;;;23.63;9.45;;;;;;;1.78;84.78;98656.41;4916672;29;20048;-62
2022/02/01 02:20:08;;;;;;;23.63;10.10;;;;;;;1.76;84.79;98663.09;4916707;29;20128;-63
2022/02/01 02:22:38;;;;;;;23.98;10.60;;;;;;;1.71;84.45;98670.56;4916742;29;20048;-62
2022/02/01 02:25:08;;;;;;;21.38;9.52;;;;;;;1.74;85.13;98679.81;4918917;29;20052;-63
2022/02/01 02:27:39;;;;;;;22.40;9.65;;;;;;;1.76;84.70;98683.19;4920267;29;20514;-63
2022/02/01 02:30:09;;;;;;;19.20;9.35;;;;;;;1.74;85.13;98690.72;4920548;29;20056;-63
2022/02/01 02:32:37;;;;;;;;;;;;;;;1.73;85.42;98684.00;4920409;29;20080;-63
2022/02/01 02:35:07;;;;;;;19.90;9.20;;;;;;;1.67;84.58;98685.56;4920244;29;19923;-63
2022/02/01 02:37:39;;;;;;;21.33;8.50;;;;;;;1.61;84.44;98698.03;4919897;29;20109;-63
2022/02/01 02:40:20;;;;;;;25.38;10.23;;;;;;;1.58;85.27;98692.94;4919929;29;20048;-62
2022/02/01 02:45:30;;;;;;;22.65;8.82;;;;;;;1.60;84.92;98707.25;4919986;29;20051;-63
2022/02/01 02:47:59;;;;;;;23.87;9.53;;;;;;;1.69;84.73;98711.56;4919722;29;20047;-62
2022/02/01 02:50:29;;;;;;;22.93;9.77;;;;;;;1.76;84.82;98703.31;4919984;29;20052;-63
2022/02/01 02:52:59;;;;;;;24.05;9.52;;;;;;;1.72;84.49;98711.66;4919676;29;20451;-63
2022/02/01 02:55:31;;;;;;;24.27;9.90;;;;;;;1.74;84.93;98710.00;4920160;29;20516;-62
2022/02/01 02:58:01;;;;;;;30.08;10.48;;;;;;;1.75;85.30;98707.50;4919649;29;20052;-62
2022/02/01 03:00:30;;;;;;;31.35;10.13;;;;;;;1.78;85.10;98721.78;4919600;29;20479;-63
2022/02/01 03:03:00;;;;;;;24.45;9.65;;;;;;;1.77;85.06;98715.09;4919425;29;20096;-63
2022/02/01 03:05:31;;;;;;;33.63;10.85;;;;;;;1.78;84.88;98719.28;4919451;29;20498;-62
2022/02/01 03:08:01;;;;;;;28.20;11.85;;;;;;;1.71;85.24;98720.00;4919356;29;20055;-62
2022/02/01 03:10:30;;;;;;;28.85;12.18;;;;;;;1.70;85.58;98728.38;4919237;29;20096;-62
2022/02/01 03:13:09;;;;;;;23.17;10.30;;;;;;;1.69;84.77;98732.53;4919224;29;20083;-63
2022/02/01 03:15:46;;;;;;;26.60;10.43;;;;;;;1.66;85.64;98741.69;4919233;29;20415;-63
2022/02/01 03:20:52;;;;;;;28.20;10.70;;;;;;;1.61;85.20;98739.09;4919344;29;20071;-63
2022/02/01 03:23:22;;;;;;;27.07;9.93;;;;;;;1.58;85.06;98733.16;4919324;29;20048;-63
2022/02/01 03:25:51;;;;;;;24.60;9.57;;;;;;;1.54;85.59;98731.41;4919361;29;20040;-63
2022/02/01 03:28:20;;;;;;;13.48;7.05;;;;;;;1.60;85.12;98736.56;4918983;29;20059;-63
2022/02/01 03:30:49;;;;;;;14.82;5.32;;;;;;;1.71;84.77;98737.59;4918864;29;20095;-63
2022/02/01 03:33:18;;;;;;;10.93;5.43;;;;;;;1.76;84.98;98741.03;4918974;29;20518;-63
2022/02/01 03:35:47;;;;;;;12.18;5.25;;;;;;;1.85;84.86;98736.19;4918724;29;20044;-62
2022/02/01 03:38:16;;;;;;;13.70;5.93;;;;;;;1.94;84.06;98748.94;4918862;29;20055;-63
2022/02/01 03:40:46;;;;;;;10.00;4.23;;;;;;;1.95;84.23;98745.59;4918634;29;20049;-63
2022/02/01 03:43:16;;;;;;;10.77;5.22;;;;;;;1.96;84.35;98748.16;4919520;29;20056;-62
2022/02/01 03:45:45;;;;;;;;;;;;;;;1.96;83.92;98762.41;4919380;29;20127;-62
2022/02/01 03:48:14;;;;;;;13.95;5.63;;;;;;;1.95;83.60;98771.59;4918633;29;19923;-63
2022/02/01 03:50:44;;;;;;;13.83;5.30;;;;;;;1.98;83.24;98773.31;4918596;29;20047;-63
2022/02/01 03:53:13;;;;;;;11.77;5.10;;;;;;;2.02;82.37;98782.63;4918526;29;20067;-63
2022/02/01 03:55:41;;;;;;;15.85;5.93;;;;;;;2.01;82.84;98785.97;4918460;29;20080;-63
2022/02/01 03:58:12;;;;;;;11.68;5.32;;;;;;;2.03;82.27;98796.91;4918459;29;20044;-63
2022/02/01 04:00:41;;;;;;;12.35;6.13;;;;;;;2.04;81.49;98796.94;4918386;29;20131;-63
2022/02/01 04:03:10;;;;;;;14.90;5.55;;;;;;;2.04;82.16;98803.63;4918229;29;20056;-63
2022/02/01 04:05:39;;;;;;;8.48;4.15;;;;;;;2.07;81.48;98803.69;4918347;29;20498;-64
2022/02/01 04:08:08;;;;;;;16.88;7.88;;;;;;;2.08;80.66;98807.91;4918231;29;20062;-63
2022/02/01 04:10:37;;;;;;;12.07;4.20;;;;;;;2.08;80.69;98817.97;4918409;29;20045;-63
2022/02/01 04:13:06;;;;;;;15.00;5.97;;;;;;;2.05;80.12;98815.38;4918451;29;20047;-63
2022/02/01 04:15:36;;;;;;;8.00;4.03;;;;;;;2.08;79.94;98802.88;4918097;29;20283;-63
2022/02/01 04:18:07;;;;;;;14.23;5.20;;;;;;;2.07;80.23;98801.16;4918097;29;20052;-63
2022/02/01 04:20:36;;;;;;;11.82;5.38;;;;;;;2.07;80.07;98808.72;4918092;29;20062;-63
2022/02/01 04:23:06;;;;;;;12.55;5.75;;;;;;;2.00;79.57;98795.19;4917936;29;20406;-63
2022/02/01 04:25:35;;;;;;;10.18;5.15;;;;;;;2.07;79.13;98813.75;4917231;29;20044;-63
2022/02/01 04:28:04;;;;;;;12.85;5.20;;;;;;;2.02;79.26;98813.66;4917881;29;20054;-62
2022/02/01 04:30:33;;;;;;;11.90;4.95;;;;;;;1.98;78.56;98826.16;4918130;29;20084;-63
2022/02/01 04:33:07;;;;;;;14.63;4.90;;;;;;;1.99;78.81;98832.91;4918004;29;20572;-62
2022/02/01 04:35:37;;;;;;;10.65;5.43;;;;;;;2.00;79.11;98839.59;4918098;29;20048;-62
2022/02/01 04:38:06;;;;;;;11.10;5.18;;;;;;;1.95;78.15;98841.19;4917790;29;20048;-62
2022/02/01 04:40:35;;;;;;;15.93;5.23;;;;;;;1.92;78.39;98847.00;4917738;29;20112;-63
2022/02/01 04:43:06;;;;;;;11.80;5.45;;;;;;;1.84;78.41;98847.69;4917571;29;20653;-63
2022/02/01 04:45:35;;;;;;;11.63;5.25;;;;;;;1.83;77.79;98861.06;4918182;29;20075;-63
2022/02/01 04:48:05;;;;;;;9.73;4.83;;;;;;;1.84;78.17;98870.31;4917208;29;20478;-63
2022/02/01 04:50:34;;;;;;;10.32;4.75;;;;;;;1.84;77.12;98875.34;4917595;29;20468;-64
2022/02/01 04:53:03;;;;;;;12.57;4.88;;;;;;;1.80;77.13;98874.44;4917518;29;20055;-63
2022/02/01 04:55:46;;;;;;;11.63;5.43;;;;;;;1.71;77.64;98866.69;4917800;29;20393;-63
2022/02/01 04:58:15;;;;;;;12.25;5.07;;;;;;;1.71;76.83;98876.75;4917456;29;20642;-63
2022/02/01 05:00:44;;;;;;;12.77;5.17;;;;;;;1.70;77.41;98886.78;4918079;29;20538;-63
2022/02/01 05:03:15;;;;;;;18.25;6.40;;;;;;;1.67;76.77;98889.22;4917284;29;20036;-63
2022/02/01 05:05:45;;;;;;;15.68;5.88;;;;;;;1.66;76.53;98888.38;4917705;29;20056;-63
2022/02/01 05:08:14;;;;;;;;;;;;;;;1.63;76.63;98885.78;4917769;29;20475;-63
2022/02/01 05:10:43;;;;;;;13.77;6.03;;;;;;;1.59;76.96;98880.66;4917872;29;20369;-63
2022/02/01 05:13:45;;;;;;;15.63;5.60;;;;;;;1.58;76.13;98889.91;4917246;29;20048;-63
2022/02/01 05:16:18;;;;;;;17.15;5.95;;;;;;;1.61;76.39;98899.19;4917222;29;20041;-63
2022/02/01 05:19:01;;;;;;;11.70;5.25;;;;;;;1.57;76.54;98907.44;4917599;29;20135;-63
2022/02/01 05:21:31;;;;;;;14.30;5.70;;;;;;;1.48;76.15;98913.13;4917322;29;20048;-63
2022/02/01 05:24:02;;;;;;;11.70;4.95;;;;;;;1.47;76.44;98915.59;4917191;29;20518;-63
2022/02/01 05:26:32;;;;;;;12.60;6.60;;;;;;;1.44;76.80;98925.59;4917828;29;20052;-63
2022/02/01 05:29:01;;;;;;;12.95;6.03;;;;;;;1.38;76.28;98941.38;4917804;29;20082;-63
2022/02/01 05:31:30;;;;;;;15.93;5.87;;;;;;;1.40;76.41;98939.75;4917732;29;20479;-63
2022/02/01 05:34:00;;;;;;;13.63;4.63;;;;;;;1.42;76.65;98945.66;4917382;29;20047;-63
2022/02/01 05:36:29;;;;;;;17.15;5.45;;;;;;;1.43;77.02;98954.03;4917449;29;20104;-63
2022/02/01 05:38:58;;;;;;;11.95;5.43;;;;;;;1.44;76.84;98956.59;4917131;29;20048;-63
2022/02/01 05:41:28;;;;;;;14.80;6.95;;;;;;;1.46;76.19;98965.03;4917028;29;20537;-62
2022/02/01 05:43:57;;;;;;;16.30;6.07;;;;;;;1.48;76.79;98973.47;4917157;29;20045;-63
2022/02/01 05:46:26;;;;;;;14.37;5.63;;;;;;;1.47;76.33;98991.00;4917004;29;20036;-63
2022/02/01 05:48:55;;;;;;;12.70;6.72;;;;;;;1.45;76.89;99002.69;4916995;29;20075;-63
2022/02/01 05:51:26;;;;;;;14.25;7.20;;;;;;;1.46;76.27;98995.22;4916842;29;20064;-63
2022/02/01 05:53:55;;;;;;;14.77;6.60;;;;;;;1.42;76.88;98997.63;4916268;29;20064;-64
2022/02/01 05:56:25;;;;;;;17.50;5.78;;;;;;;1.48;76.41;99002.78;4917183;29;20115;-63
2022/02/01 05:58:54;;;;;;;;;;;;;;;1.49;76.19;99010.34;4919239;29;20059;-63
2022/02/01 06:01:23;;;;;;;13.10;4.82;;;;;;;1.49;76.61;99020.41;4919734;29;19939;-63
2022/02/01 06:03:52;;;;;;;17.00;5.35;;;;;;;1.51;76.11;99015.44;4920566;29;20047;-65
2022/02/01 06:06:21;;;;;;;10.20;4.07;;;;;;;1.56;76.76;99018.91;4920456;29;20084;-67
2022/02/01 06:08:52;;;;;;;12.52;5.30;;;;;;;1.59;75.91;99018.94;4920626;29;20051;-65
2022/02/01 06:11:21;;;;;;;11.10;4.70;;;;;;;1.64;75.98;99019.91;4920878;29;20075;-64
2022/02/01 06:13:50;;;;;;;12.65;4.93;;;;;;;1.62;76.32;99024.06;4920644;29;20066;-64
2022/02/01 06:16:19;;;;;;;14.60;5.20;;;;;;;1.63;75.39;99034.13;4919265;29;20574;-64
2022/02/01 06:18:48;;;;;;;14.40;4.93;;;;;;;1.60;75.29;99033.25;4920436;29;20283;-64
2022/02/01 06:21:16;;;;;;;14.33;4.97;;;;;;;1.59;75.95;99041.59;4920116;29;20052;-62
2022/02/01 06:23:46;;;;;;;13.38;4.95;;;;;;;1.59;75.31;99047.47;4920026;29;20044;-62
2022/02/01 06:26:20;;;;;;;12.25;4.25;;;;;;;1.65;76.07;99046.78;4920060;29;20052;-64
2022/02/01 06:28:50;;;;;;;11.40;5.10;;;;;;;1.64;75.26;99045.06;4903395;29;20055;-63
2022/02/01 06:31:19;;;;;;;8.73;3.95;;;;;;;1.65;75.11;99046.78;4920262;29;20127;-63
2022/02/01 06:33:48;;;;;;;11.77;4.63;;;;;;;1.63;75.29;99038.34;4919994;29;20052;-63
2022/02/01 06:36:16;;;;;;;11.93;4.70;;;;;;;1.58;74.82;99039.91;4903192;29;20047;-63
2022/02/01 06:38:45;;;;;;;15.85;5.72;;;;;;;1.61;74.51;99050.88;4920159;29;20465;-63
2022/02/01 06:41:14;;;;;;;9.93;3.75;;;;;;;1.63;74.57;99063.50;4920031;29;20078;-63
2022/02/01 06:43:49;;;;;;;15.27;5.43;;;;;;;1.59;74.71;99092.72;4919882;29;20092;-62
2022/02/01 06:46:19;;;;;;;9.68;4.60;;;;;;;1.60;74.40;99103.63;4920077;29;20052;-62
2022/02/01 06:48:48;;;;;;;15.27;5.25;;;;;;;1.66;75.09;99107.16;4919588;29;20396;-64
2022/02/01 06:51:18;;;;;;;11.75;5.22;;;;;;;1.75;75.15;99109.06;4919578;29;20100;-62
2022/02/01 06:53:48;;;;;;;19.00;5.55;;;;;;;1.87;75.16;99119.44;4919587;29;20040;-65
2022/02/01 06:56:22;;;;;;;13.85;5.63;;;;;;;2.17;74.40;99126.81;4920091;29;20055;-64
2022/02/01 06:58:53;;;;;;;10.98;6.10;;;;;;;2.57;75.15;99120.22;4920070;29;20048;-62
2022/02/01 07:01:22;;;;;;;14.55;5.05;;;;;;;2.78;74.30;99111.41;4919507;29;20056;-62
2022/02/01 07:03:52;;;;;;;14.10;5.80;;;;;;;2.90;74.29;99116.72;4919522;29;20064;-62
2022/02/01 07:06:21;;;;;;;12.45;4.82;;;;;;;3.00;73.44;99113.56;4919388;29;20138;-62
2022/02/01 07:08:50;;;;;;;13.65;4.47;;;;;;;3.05;73.82;99122.03;4919639;29;20059;-62
2022/02/01 07:11:20;;;;;;;14.48;5.18;;;;;;;3.23;73.11;99127.44;4918801;29;20068;-62
2022/02/01 07:13:49;;;;;;;;;;;;;;;3.32;73.23;99133.53;4919589;29;20052;-62
2022/02/01 07:16:20;;;;;;;13.73;4.93;;;;;;;3.44;72.42;99122.81;4919530;29;19923;-62
2022/02/01 07:18:56;;;;;;;15.57;5.15;;;;;;;3.52;71.79;99131.38;4919402;29;20052;-63
2022/02/01 07:21:28;;;;;;;17.80;5.38;;;;;;;3.64;71.48;99146.72;4919096;29;20131;-63
2022/02/01 07:24:00;;;;;;;11.60;4.22;;;;;;;3.67;71.64;99146.75;4919001;29;20048;-61
2022/02/01 07:26:31;;;;;;;16.42;5.00;;;;;;;3.69;70.83;99147.66;4918974;29;20059;-61
2022/02/01 07:29:00;;;;;;;15.52;5.13;;;;;;;3.68;70.89;99158.56;4919517;29;20048;-62
2022/02/01 07:31:30;;;;;;;7.65;3.63;;;;;;;3.81;70.57;99160.50;4918868;29;20044;-62
2022/02/01 07:34:00;;;;;;;9.38;4.18;;;;;;;3.89;70.26;99156.41;4918846;29;20103;-61
2022/02/01 07:36:29;;;;;;;13.75;5.05;;;;;;;3.96;69.88;99170.84;4919073;29;20521;-62
2022/02/01 07:38:58;;;;;;;19.33;4.18;;;;;;;4.02;69.75;99176.00;4918918;29;20084;-63
2022/02/01 07:41:27;;;;;;;13.10;4.23;;;;;;;4.04;69.42;99179.41;4905374;29;20465;-62
2022/02/01 07:43:56;;;;;;;14.33;5.30;;;;;;;3.98;69.33;99174.22;4918538;29;20048;-63
2022/02/01 07:46:28;;;;;;;11.23;4.65;;;;;;;3.90;69.35;99175.78;4918911;29;20293;-62
2022/02/01 07:48:59;;;;;;;13.68;4.35;;;;;;;3.72;68.95;99175.44;4918623;29;20056;-62
2022/02/01 07:51:28;;;;;;;13.25;6.18;;;;;;;3.62;69.13;99183.69;4917144;29;20551;-62
2022/02/01 07:53:58;;;;;;;14.48;5.30;;;;;;;3.59;69.08;99187.81;4917800;29;20048;-62
2022/02/01 07:56:27;;;;;;;12.97;4.83;;;;;;;3.64;69.43;99191.28;4916353;29;20490;-62
2022/02/01 07:58:55;;;;;;;15.68;5.00;;;;;;;3.69;69.81;99198.13;4916436;29;20040;-63
2022/02/01 08:01:24;;;;;;;12.00;4.50;;;;;;;3.71;69.52;99204.06;4916437;29;20067;-63
2022/02/01 08:03:54;;;;;;;12.05;5.18;;;;;;;3.70;69.77;99199.81;4917913;29;20040;-63
2022/02/01 08:06:24;;;;;;;9.52;3.28;;;;;;;3.64;68.91;99192.16;4918030;29;20457;-62
2022/02/01 08:08:53;;;;;;;13.10;4.30;;;;;;;3.73;69.55;99201.53;4912903;29;20055;-62
2022/02/01 08:11:23;;;;;;;15.07;3.90;;;;;;;3.99;69.22;99201.19;4908355;29;20495;-62
2022/02/01 08:16:50;;;;;;;12.43;4.53;;;;;;;4.70;68.56;99214.16;4917530;29;20051;-62
2022/02/01 08:19:35;;;;;;;9.80;4.57;;;;;;;4.93;67.76;99212.78;4915680;29;20044;-62
2022/02/01 08:22:29;;;;;;;8.00;3.60;;;;;;;5.10;67.05;99213.88;4916452;29;20056;-61
2022/02/01 08:24:58;;;;;;;12.25;3.80;;;;;;;5.12;67.04;99214.75;4915552;29;20044;-63
2022/02/01 08:27:27;;;;;;;9.43;3.27;;;;;;;5.09;66.25;99219.75;4917827;29;20486;-62
2022/02/01 08:29:57;;;;;;;8.52;3.40;;;;;;;4.96;65.77;99219.56;4914987;29;20059;-62
2022/02/01 08:32:26;;;;;;;11.50;4.45;;;;;;;4.83;65.66;99220.19;4917615;29;20439;-62
2022/02/01 08:35:01;;;;;;;11.43;4.60;;;;;;;4.73;65.84;99229.34;4913833;29;20111;-62
2022/02/01 08:37:32;;;;;;;9.47;3.67;;;;;;;4.60;65.93;99232.50;4918064;29;20044;-63
2022/02/01 08:40:01;;;;;;;16.00;4.05;;;;;;;4.52;66.37;99239.97;4917667;29;20278;-63
2022/02/01 08:42:32;;;;;;;;;;;;;;;4.40;66.98;99238.91;4918110;29;20040;-63
2022/02/01 08:45:02;;;;;;;11.75;3.83;;;;;;;4.31;67.63;99234.56;4900941;29;20267;-63
2022/02/01 08:47:31;;;;;;;11.75;3.80;;;;;;;4.32;67.89;99231.19;4918020;29;20052;-62
2022/02/01 08:50:02;;;;;;;11.65;4.25;;;;;;;4.35;68.15;99235.44;4900865;29;20099;-63
2022/02/01 08:52:39;;;;;;;13.60;3.77;;;;;;;4.42;67.87;99242.31;4917299;29;20044;-63
2022/02/01 08:55:19;;;;;;;10.95;3.90;;;;;;;4.56;68.54;99231.59;4918112;29;20426;-64
2022/02/01 08:57:49;;;;;;;13.25;4.55;;;;;;;4.64;68.07;99229.19;4917628;29;20059;-63
2022/02/01 09:00:18;;;;;;;12.13;4.20;;;;;;;4.62;68.27;99235.91;4917448;29;20067;-63
2022/02/01 09:02:47;;;;;;;10.90;5.00;;;;;;;4.65;67.97;99233.44;4916237;29;20032;-67
2022/02/01 09:05:16;;;;;;;10.07;3.38;;;;;;;4.58;68.17;99231.66;4916501;29;20056;-63
2022/02/01 09:07:46;;;;;;;10.10;4.18;;;;;;;4.50;67.84;99223.09;4917267;29;20135;-63
2022/02/01 09:10:16;;;;;;;11.02;4.32;;;;;;;4.64;67.93;99249.41;4917392;29;20056;-63
2022/02/01 09:12:46;;;;;;;9.50;4.07;;;;;;;4.61;68.07;99250.22;4917257;29;20059;-63
2022/02/01 09:15:15;;;;;;;10.00;4.35;;;;;;;4.61;67.89;99254.41;4917580;29;20040;-64
2022/02/01 09:17:56;;;;;;;10.50;3.88;;;;;;;4.63;68.04;99260.38;4917251;29;20135;-63
2022/02/01 09:20:29;;;;;;;10.55;4.13;;;;;;;4.54;68.03;99257.66;4917255;29;20052;-63
2022/02/01 09:23:00;;;;;;;9.98;4.07;;;;;;;4.55;67.91;99265.28;4917162;29;20048;-64
2022/02/01 09:25:30;;;;;;;16.35;4.63;;;;;;;4.46;68.36;99264.28;4916814;29;20056;-63
2022/02/01 09:27:59;;;;;;;11.82;3.30;;;;;;;4.49;67.94;99275.28;4916725;29;20048;-63
2022/02/01 09:30:30;;;;;;;8.77;3.80;;;;;;;4.44;67.62;99271.00;4911671;29;20135;-63
2022/02/01 09:33:00;;;;;;;11.45;5.13;;;;;;;4.38;67.65;99275.94;4917069;29;20052;-64
2022/02/01 09:35:29;;;;;;;10.77;4.10;;;;;;;4.35;68.03;99281.78;4910452;29;20116;-63
2022/02/01 09:38:00;;;;;;;15.23;4.23;;;;;;;4.33;68.27;99277.53;4902351;29;20049;-63
2022/02/01 09:40:46;;;;;;;11.27;4.40;;;;;;;4.33;67.66;99283.44;4902251;29;20045;-63
2022/02/01 09:43:17;;;;;;;10.60;4.28;;;;;;;4.33;68.24;99285.09;4885604;29;20040;-63
2022/02/01 09:45:46;;;;;;;10.73;4.88;;;;;;;4.45;67.92;99287.84;4900975;29;20403;-63
2022/02/01 09:48:35;;;;;;;11.02;4.30;;;;;;;4.64;67.48;99287.31;4902226;29;20048;-63
2022/02/01 09:51:08;;;;;;;11.77;3.88;;;;;;;4.81;67.23;99285.91;4901559;29;20057;-63
2022/02/01 09:53:39;;;;;;;8.95;3.95;;;;;;;5.05;67.15;99280.38;4901780;29;20056;-63
2022/02/01 09:56:08;;;;;;;9.88;4.22;;;;;;;4.98;66.79;99287.03;4902040;29;20131;-62
2022/02/01 09:58:40;;;;;;;9.33;4.10;;;;;;;4.96;66.31;99295.41;4902003;29;20044;-63
2022/02/01 10:01:17;;;;;;;10.25;3.58;;;;;;;4.83;66.17;99301.09;4901981;29;20271;-63
2022/02/01 10:03:47;;;;;;;8.52;2.92;;;;;;;4.72;65.60;99303.47;4901681;29;20149;-63
2022/02/01 10:06:36;;;;;;;;;;;;;;;4.73;65.75;99305.16;4920274;29;20071;-63
2022/02/01 10:09:27;;;;;;;9.50;3.83;;;;;;;4.82;65.48;99305.31;4920661;29;19951;-63
2022/02/01 10:11:56;;;;;;;18.52;5.07;;;;;;;4.87;65.88;99300.34;4919917;29;20048;-63
2022/02/01 10:14:28;;;;;;;;;;;;;;;4.90;65.65;99306.28;4920310;29;20050;-64
2022/02/01 10:17:01;;;;;;;14.48;4.05;;;;;;;4.94;65.40;99295.41;4920508;29;20459;-63
2022/02/01 10:19:29;;;;;;;10.00;3.55;;;;;;;4.96;65.35;99308.06;4920459;29;20131;-63
2022/02/01 10:22:01;;;;;;;15.33;4.93;;;;;;;4.91;64.82;99310.53;4919736;29;20048;-62
2022/02/01 10:24:34;;;;;;;11.60;4.95;;;;;;;4.86;65.03;99304.53;4920463;29;20483;-63
2022/02/01 10:27:08;;;;;;;12.57;5.18;;;;;;;4.94;65.10;99305.53;4920592;29;20535;-63
2022/02/01 10:29:39;;;;;;;11.90;5.35;;;;;;;5.06;65.42;99310.72;4920092;29;20120;-62
2022/02/01 10:32:20;;;;;;;12.98;4.47;;;;;;;5.02;65.22;99303.94;4920260;29;20131;-63
2022/02/01 10:34:49;;;;;;;13.40;4.30;;;;;;;5.14;64.96;99303.25;4920298;29;20055;-63
2022/02/01 10:37:38;;;;;;;7.40;3.40;;;;;;;5.29;65.11;99296.75;4919616;29;20084;-63
2022/02/01 10:40:09;;;;;;;15.38;4.07;;;;;;;5.57;64.66;99300.50;4918554;29;20069;-63
2022/02/01 10:42:40;;;;;;;8.68;3.70;;;;;;;5.77;63.98;99291.47;4887359;29;20044;-63
2022/02/01 10:45:10;;;;;;;10.73;3.97;;;;;;;5.92;63.75;99280.72;4918474;29;20075;-64
2022/02/01 10:47:42;;;;;;;10.25;3.92;;;;;;;5.87;63.30;99272.22;4919500;29;20057;-64
2022/02/01 10:50:14;;;;;;;10.05;3.63;;;;;;;5.98;63.25;99268.09;4919936;29;20150;-64
2022/02/01 10:52:45;;;;;;;11.85;3.95;;;;;;;6.07;63.16;99263.97;4919448;29;20060;-63
2022/02/01 10:55:20;;;;;;;10.80;4.05;;;;;;;5.99;62.86;99257.16;4918945;29;20088;-64
2022/02/01 10:58:09;;;;;;;6.25;2.90;;;;;;;5.90;62.42;99262.94;4900317;29;20056;-63
2022/02/01 11:00:39;;;;;;;10.25;3.65;;;;;;;5.90;62.44;99264.66;4900521;29;20041;-63
2022/02/01 11:03:08;;;;;;;6.82;2.92;;;;;;;5.74;62.46;99265.25;4900562;29;20071;-63
2022/02/01 11:05:39;;;;;;;9.73;3.33;;;;;;;5.88;62.11;99274.75;4912396;29;20048;-63
2022/02/01 11:08:10;;;;;;;10.55;4.38;;;;;;;6.03;62.29;99262.25;4918900;29;20131;-63
2022/02/01 11:10:44;;;;;;;6.57;2.55;;;;;;;6.08;62.03;99264.84;4918495;29;20056;-63
2022/02/01 11:13:13;;;;;;;10.65;3.20;;;;;;;5.83;62.31;99257.78;4919043;29;20467;-63
2022/02/01 11:15:55;;;;;;;;;;;;;;;5.69;62.79;99259.28;4919865;29;20075;-63
2022/02/01 11:18:27;;;;;;;9.85;3.90;;;;;;;5.67;62.66;99264.34;4918049;29;19983;-63
2022/02/01 11:21:10;;;;;;;8.27;3.08;;;;;;;5.64;62.66;99260.94;4917951;29;20052;-63
2022/02/01 11:23:51;;;;;;;10.57;3.22;;;;;;;5.60;62.61;99264.25;4919043;29;20048;-63
2022/02/01 11:26:32;;;;;;;6.95;2.50;;;;;;;5.46;62.29;99261.56;4919174;29;20044;-63
2022/02/01 11:31:45;;;;;;;11.20;3.63;;;;;;;5.23;63.07;99268.84;4918327;29;20119;-64
2022/02/01 11:34:19;;;;;;;10.30;3.63;;;;;;;4.97;63.26;99249.91;4918637;29;20514;-63
2022/02/01 11:36:58;;;;;;;9.25;3.88;;;;;;;4.94;63.53;99246.50;4918818;29;20497;-63
2022/02/01 11:39:27;;;;;;;13.43;4.32;;;;;;;5.01;63.90;99246.63;4918850;29;20048;-64
2022/02/01 11:42:00;;;;;;;14.70;6.22;;;;;;;5.06;63.96;99244.97;4919016;29;20080;-64
2022/02/01 11:44:35;;;;;;;18.90;5.25;;;;;;;5.21;64.19;99240.16;4902151;29;20127;-63
2022/02/01 11:47:11;;;;;;;12.77;5.97;;;;;;;5.48;64.20;99218.53;4918778;29;20095;-63
2022/02/01 11:49:52;;;;;;;13.68;4.47;;;;;;;5.57;63.77;99216.13;4918275;29;20036;-62
2022/02/01 11:52:23;;;;;;;6.60;3.08;;;;;;;5.56;63.70;99217.81;4916708;29;20068;-62
2022/02/01 11:55:02;;;;;;;10.45;3.40;;;;;;;5.73;63.48;99210.41;4915656;29;20099;-63
2022/02/01 11:57:54;;;;;;;9.80;4.57;;;;;;;5.69;63.07;99198.53;4901136;29;20048;-62
2022/02/01 12:00:25;;;;;;;13.15;4.88;;;;;;;5.73;63.18;99210.41;4917926;29;20044;-62
2022/02/01 12:03:01;;;;;;;10.65;4.20;;;;;;;5.64;63.13;99202.72;4916182;29;20044;-62
2022/02/01 12:05:33;;;;;;;6.97;3.40;;;;;;;5.65;63.01;99201.88;4917997;29;20044;-63
2022/02/01 12:08:07;;;;;;;13.68;5.18;;;;;;;5.79;63.18;99195.28;4920016;29;20512;-62
2022/02/01 12:10:40;;;;;;;7.22;3.10;;;;;;;6.21;62.31;99185.59;4918792;29;20546;-62
2022/02/01 12:13:12;;;;;;;8.00;3.38;;;;;;;6.72;61.52;99185.13;4914968;29;20046;-63
2022/02/01 12:15:42;;;;;;;8.07;3.15;;;;;;;6.74;60.43;99189.38;4913798;29;20040;-62
2022/02/01 12:18:28;;;;;;;12.63;4.80;;;;;;;6.69;60.19;99196.09;4915725;29;20088;-63
2022/02/01 12:21:10;;;;;;;6.40;2.88;;;;;;;6.53;59.67;99189.22;4915373;29;20048;-62
2022/02/01 12:23:46;;;;;;;6.45;2.97;;;;;;;6.48;59.20;99193.41;4914118;29;20036;-63
2022/02/01 12:26:20;;;;;;;9.18;3.08;;;;;;;6.13;59.94;99177.06;4918162;29;20127;-63
2022/02/01 12:28:53;;;;;;;10.13;3.05;;;;;;;5.88;60.76;99180.19;4918202;29;20051;-63
2022/02/01 12:31:26;;;;;;;6.57;3.38;;;;;;;5.76;61.09;99175.00;4917928;29;20131;-62
2022/02/01 12:33:57;;;;;;;5.32;2.80;;;;;;;5.51;61.56;99173.91;4916832;29;20050;-64
2022/02/01 12:36:36;;;;;;;10.40;2.90;;;;;;;5.39;61.57;99168.69;4918801;29;20040;-62
2022/02/01 12:39:12;;;;;;;8.90;2.83;;;;;;;5.28;62.27;99166.03;4917374;29;20059;-62
2022/02/01 12:41:43;;;;;;;8.45;2.30;;;;;;;5.23;62.14;99157.53;4916081;29;20063;-63
2022/02/01 12:46:56;;;;;;;8.73;2.88;;;;;;;5.42;62.45;99151.03;4915005;29;20599;-63
2022/02/01 12:49:47;;;;;;;8.43;2.72;;;;;;;5.46;62.23;99149.38;4916279;29;20482;-63
2022/02/01 12:52:21;;;;;;;8.02;2.90;;;;;;;5.51;62.12;99135.94;4916816;29;20104;-63
2022/02/01 12:54:59;;;;;;;9.68;2.80;;;;;;;5.50;61.61;99138.44;4915117;29;20443;-62
2022/02/01 12:57:30;;;;;;;7.15;2.75;;;;;;;5.52;61.79;99142.69;4914611;29;20051;-63
2022/02/01 13:00:04;;;;;;;5.18;2.53;;;;;;;5.60;61.65;99138.56;4910632;29;20055;-62
2022/02/01 13:02:35;;;;;;;5.22;2.33;;;;;;;5.59;61.04;99146.16;4917787;29;20056;-62
2022/02/01 13:05:07;;;;;;;5.35;2.60;;;;;;;5.58;60.70;99159.63;4917302;29;20047;-62